sensor_id;sensor_type;location;lat;lon;timestamp;P1;durP1;ratioP1;P2;durP2;ratioP2
32790;SDS011;19143;59.322;14.502;2023-08-24T00:00:49;11.40;;;3.70;;
32790;SDS011;19143;59.322;14.502;2023-08-24T00:03:16;6.90;;;3.50;;
32790;SDS011;19143;59.322;14.502;2023-08-24T00:05:42;9.23;;;4.43;;
32790;SDS011;19143;59.322;14.502;2023-08-24T00:08:10;10.57;;;3.57;;
32790;SDS011;19143;59.322;14.502;2023-08-24T00:10:37;12.97;;;4.23;;
32790;SDS011;19143;59.322;14.502;2023-08-24T00:13:03;8.37;;;3.10;;
32790;SDS011;19143;59.322;14.502;2023-08-24T00:15:30;9.23;;;3.10;;
32790;SDS011;19143;59.322;14.502;2023-08-24T00:17:58;8.77;;;3.10;;
32790;SDS011;19143;59.322;14.502;2023-08-24T00:20:25;8.90;;;3.37;;
32790;SDS011;19143;59.322;14.502;2023-08-24T00:22:52;9.30;;;3.20;;
32790;SDS011;19143;59.322;14.502;2023-08-24T00:25:18;9.33;;;3.63;;
32790;SDS011;19143;59.322;14.502;2023-08-24T00:27:45;5.57;;;3.00;;
32790;SDS011;19143;59.322;14.502;2023-08-24T00:30:12;8.70;;;3.43;;
32790;SDS011;19143;59.322;14.502;2023-08-24T00:32:38;14.93;;;3.50;;
32790;SDS011;19143;59.322;14.502;2023-08-24T00:35:08;11.70;;;3.57;;
32790;SDS011;19143;59.322;14.502;2023-08-24T00:37:35;11.83;;;4.07;;
32790;SDS011;19143;59.322;14.502;2023-08-24T00:40:03;9.33;;;3.73;;
32790;SDS011;19143;59.322;14.502;2023-08-24T00:42:32;6.43;;;3.03;;
32790;SDS011;19143;59.322;14.502;2023-08-24T00:44:59;9.37;;;3.57;;
32790;SDS011;19143;59.322;14.502;2023-08-24T00:47:25;6.80;;;3.27;;
32790;SDS011;19143;59.322;14.502;2023-08-24T00:49:52;12.40;;;3.77;;
32790;SDS011;19143;59.322;14.502;2023-08-24T00:52:20;6.13;;;3.10;;
32790;SDS011;19143;59.322;14.502;2023-08-24T00:54:47;8.73;;;3.40;;
32790;SDS011;19143;59.322;14.502;2023-08-24T00:57:13;11.80;;;3.40;;
32790;SDS011;19143;59.322;14.502;2023-08-24T00:59:40;13.33;;;3.50;;
32790;SDS011;19143;59.322;14.502;2023-08-24T01:02:07;9.07;;;3.37;;
32790;SDS011;19143;59.322;14.502;2023-08-24T01:04:34;11.63;;;3.23;;
32790;SDS011;19143;59.322;14.502;2023-08-24T01:07:00;13.03;;;3.50;;
32790;SDS011;19143;59.322;14.502;2023-08-24T01:09:29;6.83;;;3.17;;
32790;SDS011;19143;59.322;14.502;2023-08-24T01:11:58;9.40;;;3.70;;
32790;SDS011;19143;59.322;14.502;2023-08-24T01:14:29;4.63;;;3.33;;
32790;SDS011;19143;59.322;14.502;2023-08-24T01:16:57;11.67;;;3.17;;
32790;SDS011;19143;59.322;14.502;2023-08-24T01:19:37;7.27;;;3.40;;
32790;SDS011;19143;59.322;14.502;2023-08-24T01:22:05;6.30;;;3.40;;
32790;SDS011;19143;59.322;14.502;2023-08-24T01:24:36;10.27;;;3.47;;
32790;SDS011;19143;59.322;14.502;2023-08-24T01:27:06;11.43;;;3.33;;
32790;SDS011;19143;59.322;14.502;2023-08-24T01:29:33;12.50;;;3.27;;
32790;SDS011;19143;59.322;14.502;2023-08-24T01:31:59;10.10;;;3.00;;
32790;SDS011;19143;59.322;14.502;2023-08-24T01:34:26;12.80;;;3.60;;
32790;SDS011;19143;59.322;14.502;2023-08-24T01:36:52;13.20;;;3.23;;
32790;SDS011;19143;59.322;14.502;2023-08-24T01:39:21;14.67;;;3.17;;
32790;SDS011;19143;59.322;14.502;2023-08-24T01:41:50;8.47;;;3.00;;
32790;SDS011;19143;59.322;14.502;2023-08-24T01:44:20;9.57;;;3.03;;
32790;SDS011;19143;59.322;14.502;2023-08-24T01:46:48;8.33;;;2.80;;
32790;SDS011;19143;59.322;14.502;2023-08-24T01:49:17;6.30;;;2.60;;
32790;SDS011;19143;59.322;14.502;2023-08-24T01:51:44;11.57;;;3.13;;
32790;SDS011;19143;59.322;14.502;2023-08-24T01:54:11;7.40;;;3.00;;
32790;SDS011;19143;59.322;14.502;2023-08-24T01:56:38;7.37;;;2.83;;
32790;SDS011;19143;59.322;14.502;2023-08-24T01:59:04;8.10;;;3.27;;
32790;SDS011;19143;59.322;14.502;2023-08-24T02:01:32;7.70;;;3.20;;
32790;SDS011;19143;59.322;14.502;2023-08-24T02:03:59;15.80;;;3.77;;
32790;SDS011;19143;59.322;14.502;2023-08-24T02:06:25;11.40;;;3.07;;
32790;SDS011;19143;59.322;14.502;2023-08-24T02:08:52;8.10;;;3.13;;
32790;SDS011;19143;59.322;14.502;2023-08-24T02:11:19;5.07;;;2.73;;
32790;SDS011;19143;59.322;14.502;2023-08-24T02:13:45;4.53;;;2.60;;
32790;SDS011;19143;59.322;14.502;2023-08-24T02:16:12;9.97;;;3.30;;
32790;SDS011;19143;59.322;14.502;2023-08-24T02:18:40;7.60;;;2.50;;
32790;SDS011;19143;59.322;14.502;2023-08-24T02:21:07;9.83;;;2.60;;
32790;SDS011;19143;59.322;14.502;2023-08-24T02:23:35;5.23;;;2.87;;
32790;SDS011;19143;59.322;14.502;2023-08-24T02:26:02;9.83;;;2.77;;
32790;SDS011;19143;59.322;14.502;2023-08-24T02:28:29;10.50;;;3.10;;
32790;SDS011;19143;59.322;14.502;2023-08-24T02:30:59;5.77;;;2.63;;
32790;SDS011;19143;59.322;14.502;2023-08-24T02:33:26;12.97;;;2.90;;
32790;SDS011;19143;59.322;14.502;2023-08-24T02:35:54;7.10;;;3.00;;
32790;SDS011;19143;59.322;14.502;2023-08-24T02:38:21;3.73;;;2.20;;
32790;SDS011;19143;59.322;14.502;2023-08-24T02:40:47;6.00;;;2.60;;
32790;SDS011;19143;59.322;14.502;2023-08-24T02:43:14;9.50;;;3.23;;
32790;SDS011;19143;59.322;14.502;2023-08-24T02:45:41;11.03;;;2.57;;
32790;SDS011;19143;59.322;14.502;2023-08-24T02:48:07;7.17;;;2.50;;
32790;SDS011;19143;59.322;14.502;2023-08-24T02:50:34;9.97;;;3.10;;
32790;SDS011;19143;59.322;14.502;2023-08-24T02:53:02;9.77;;;2.93;;
32790;SDS011;19143;59.322;14.502;2023-08-24T02:55:31;9.07;;;2.17;;
32790;SDS011;19143;59.322;14.502;2023-08-24T02:57:58;11.93;;;2.80;;
32790;SDS011;19143;59.322;14.502;2023-08-24T03:00:24;16.27;;;2.90;;
32790;SDS011;19143;59.322;14.502;2023-08-24T03:02:51;7.47;;;2.67;;
32790;SDS011;19143;59.322;14.502;2023-08-24T03:05:17;13.00;;;3.37;;
32790;SDS011;19143;59.322;14.502;2023-08-24T03:07:44;8.33;;;3.83;;
32790;SDS011;19143;59.322;14.502;2023-08-24T03:10:13;7.37;;;2.73;;
32790;SDS011;19143;59.322;14.502;2023-08-24T03:12:39;6.13;;;2.27;;
32790;SDS011;19143;59.322;14.502;2023-08-24T03:15:06;7.70;;;2.37;;
32790;SDS011;19143;59.322;14.502;2023-08-24T03:17:33;9.57;;;3.03;;
32790;SDS011;19143;59.322;14.502;2023-08-24T03:19:59;7.83;;;2.30;;
32790;SDS011;19143;59.322;14.502;2023-08-24T03:22:26;9.87;;;2.60;;
32790;SDS011;19143;59.322;14.502;2023-08-24T03:24:52;8.73;;;2.80;;
32790;SDS011;19143;59.322;14.502;2023-08-24T03:27:21;6.97;;;2.50;;
32790;SDS011;19143;59.322;14.502;2023-08-24T03:29:47;10.10;;;3.03;;
32790;SDS011;19143;59.322;14.502;2023-08-24T03:32:14;7.20;;;2.47;;
32790;SDS011;19143;59.322;14.502;2023-08-24T03:34:40;7.47;;;2.60;;
32790;SDS011;19143;59.322;14.502;2023-08-24T03:37:07;9.47;;;2.80;;
32790;SDS011;19143;59.322;14.502;2023-08-24T03:39:36;4.77;;;2.30;;
32790;SDS011;19143;59.322;14.502;2023-08-24T03:42:02;7.37;;;2.70;;
32790;SDS011;19143;59.322;14.502;2023-08-24T03:44:30;13.13;;;3.00;;
32790;SDS011;19143;59.322;14.502;2023-08-24T03:46:57;6.30;;;2.23;;
32790;SDS011;19143;59.322;14.502;2023-08-24T03:49:23;9.87;;;2.33;;
32790;SDS011;19143;59.322;14.502;2023-08-24T03:51:51;9.47;;;2.93;;
32790;SDS011;19143;59.322;14.502;2023-08-24T03:54:17;12.37;;;2.70;;
32790;SDS011;19143;59.322;14.502;2023-08-24T03:56:45;2.73;;;2.07;;
32790;SDS011;19143;59.322;14.502;2023-08-24T03:59:11;7.10;;;2.60;;
32790;SDS011;19143;59.322;14.502;2023-08-24T04:01:39;7.47;;;2.47;;
32790;SDS011;19143;59.322;14.502;2023-08-24T04:04:06;7.17;;;2.50;;
32790;SDS011;19143;59.322;14.502;2023-08-24T04:06:32;8.00;;;2.10;;
32790;SDS011;19143;59.322;14.502;2023-08-24T04:08:59;7.00;;;2.10;;
32790;SDS011;19143;59.322;14.502;2023-08-24T04:11:26;7.80;;;2.47;;
32790;SDS011;19143;59.322;14.502;2023-08-24T04:13:52;6.47;;;2.23;;
32790;SDS011;19143;59.322;14.502;2023-08-24T04:16:19;6.80;;;2.20;;
32790;SDS011;19143;59.322;14.502;2023-08-24T04:18:47;9.97;;;2.77;;
32790;SDS011;19143;59.322;14.502;2023-08-24T04:21:13;7.07;;;2.10;;
32790;SDS011;19143;59.322;14.502;2023-08-24T04:23:40;9.63;;;2.67;;
32790;SDS011;19143;59.322;14.502;2023-08-24T04:26:10;8.70;;;2.63;;
32790;SDS011;19143;59.322;14.502;2023-08-24T04:28:36;8.43;;;2.47;;
32790;SDS011;19143;59.322;14.502;2023-08-24T04:31:03;13.87;;;2.87;;
32790;SDS011;19143;59.322;14.502;2023-08-24T04:33:30;5.53;;;2.30;;
32790;SDS011;19143;59.322;14.502;2023-08-24T04:35:58;7.47;;;2.00;;
32790;SDS011;19143;59.322;14.502;2023-08-24T04:38:24;7.93;;;2.73;;
32790;SDS011;19143;59.322;14.502;2023-08-24T04:40:52;10.87;;;2.33;;
32790;SDS011;19143;59.322;14.502;2023-08-24T04:43:19;6.50;;;2.20;;
32790;SDS011;19143;59.322;14.502;2023-08-24T04:45:54;6.43;;;2.10;;
32790;SDS011;19143;59.322;14.502;2023-08-24T04:48:22;6.33;;;2.03;;
32790;SDS011;19143;59.322;14.502;2023-08-24T04:50:49;9.03;;;2.70;;
32790;SDS011;19143;59.322;14.502;2023-08-24T04:53:17;8.80;;;1.93;;
32790;SDS011;19143;59.322;14.502;2023-08-24T04:55:45;14.43;;;2.40;;
32790;SDS011;19143;59.322;14.502;2023-08-24T04:58:12;5.80;;;2.17;;
32790;SDS011;19143;59.322;14.502;2023-08-24T05:00:39;13.13;;;2.30;;
32790;SDS011;19143;59.322;14.502;2023-08-24T05:03:06;11.17;;;2.53;;
32790;SDS011;19143;59.322;14.502;2023-08-24T05:05:33;6.83;;;2.20;;
32790;SDS011;19143;59.322;14.502;2023-08-24T05:08:00;9.77;;;2.40;;
32790;SDS011;19143;59.322;14.502;2023-08-24T05:10:29;6.17;;;2.33;;
32790;SDS011;19143;59.322;14.502;2023-08-24T05:12:56;9.20;;;2.20;;
32790;SDS011;19143;59.322;14.502;2023-08-24T05:15:25;9.07;;;2.40;;
32790;SDS011;19143;59.322;14.502;2023-08-24T05:17:53;9.23;;;2.07;;
32790;SDS011;19143;59.322;14.502;2023-08-24T05:20:22;10.20;;;2.10;;
32790;SDS011;19143;59.322;14.502;2023-08-24T05:22:56;5.33;;;2.27;;
32790;SDS011;19143;59.322;14.502;2023-08-24T05:25:25;12.23;;;2.40;;
32790;SDS011;19143;59.322;14.502;2023-08-24T05:27:54;8.40;;;2.57;;
32790;SDS011;19143;59.322;14.502;2023-08-24T05:30:21;11.83;;;2.10;;
32790;SDS011;19143;59.322;14.502;2023-08-24T05:32:49;7.57;;;2.20;;
32790;SDS011;19143;59.322;14.502;2023-08-24T05:35:16;14.97;;;2.80;;
32790;SDS011;19143;59.322;14.502;2023-08-24T05:37:43;16.70;;;2.63;;
32790;SDS011;19143;59.322;14.502;2023-08-24T05:40:13;11.10;;;2.60;;
32790;SDS011;19143;59.322;14.502;2023-08-24T05:42:40;9.63;;;2.07;;
32790;SDS011;19143;59.322;14.502;2023-08-24T05:45:09;13.63;;;2.40;;
32790;SDS011;19143;59.322;14.502;2023-08-24T05:47:37;11.40;;;2.57;;
32790;SDS011;19143;59.322;14.502;2023-08-24T05:50:04;9.40;;;2.20;;
32790;SDS011;19143;59.322;14.502;2023-08-24T05:52:31;16.47;;;2.30;;
32790;SDS011;19143;59.322;14.502;2023-08-24T05:54:58;8.03;;;2.27;;
32790;SDS011;19143;59.322;14.502;2023-08-24T05:57:25;15.53;;;2.10;;
32790;SDS011;19143;59.322;14.502;2023-08-24T05:59:55;18.73;;;2.57;;
32790;SDS011;19143;59.322;14.502;2023-08-24T06:02:25;12.20;;;2.83;;
32790;SDS011;19143;59.322;14.502;2023-08-24T06:04:52;5.43;;;2.30;;
32790;SDS011;19143;59.322;14.502;2023-08-24T06:07:19;5.30;;;2.00;;
32790;SDS011;19143;59.322;14.502;2023-08-24T06:09:46;9.40;;;2.37;;
32790;SDS011;19143;59.322;14.502;2023-08-24T06:12:13;8.70;;;3.03;;
32790;SDS011;19143;59.322;14.502;2023-08-24T06:14:40;7.03;;;2.10;;
32790;SDS011;19143;59.322;14.502;2023-08-24T06:17:07;8.10;;;2.40;;
32790;SDS011;19143;59.322;14.502;2023-08-24T06:22:17;7.80;;;2.37;;
32790;SDS011;19143;59.322;14.502;2023-08-24T06:24:50;9.13;;;2.20;;
32790;SDS011;19143;59.322;14.502;2023-08-24T06:27:18;5.97;;;2.27;;
32790;SDS011;19143;59.322;14.502;2023-08-24T06:29:45;12.43;;;2.00;;
32790;SDS011;19143;59.322;14.502;2023-08-24T06:32:11;10.90;;;2.47;;
32790;SDS011;19143;59.322;14.502;2023-08-24T06:34:38;9.37;;;2.27;;
32790;SDS011;19143;59.322;14.502;2023-08-24T06:37:05;8.93;;;2.57;;
32790;SDS011;19143;59.322;14.502;2023-08-24T06:39:33;11.87;;;2.47;;
32790;SDS011;19143;59.322;14.502;2023-08-24T06:42:00;8.63;;;2.10;;
32790;SDS011;19143;59.322;14.502;2023-08-24T06:44:27;8.23;;;2.27;;
32790;SDS011;19143;59.322;14.502;2023-08-24T06:46:54;7.47;;;2.10;;
32790;SDS011;19143;59.322;14.502;2023-08-24T06:49:20;10.33;;;2.23;;
32790;SDS011;19143;59.322;14.502;2023-08-24T06:51:47;8.40;;;2.07;;
32790;SDS011;19143;59.322;14.502;2023-08-24T06:54:14;6.20;;;1.93;;
32790;SDS011;19143;59.322;14.502;2023-08-24T06:56:42;6.77;;;2.37;;
32790;SDS011;19143;59.322;14.502;2023-08-24T06:59:09;10.10;;;2.23;;
32790;SDS011;19143;59.322;14.502;2023-08-24T07:01:38;10.80;;;1.93;;
32790;SDS011;19143;59.322;14.502;2023-08-24T07:04:05;5.40;;;2.20;;
32790;SDS011;19143;59.322;14.502;2023-08-24T07:06:32;2.37;;;1.97;;
32790;SDS011;19143;59.322;14.502;2023-08-24T07:08:59;7.47;;;1.97;;
32790;SDS011;19143;59.322;14.502;2023-08-24T07:11:28;10.50;;;2.40;;
32790;SDS011;19143;59.322;14.502;2023-08-24T07:13:56;11.03;;;2.43;;
32790;SDS011;19143;59.322;14.502;2023-08-24T07:16:23;8.90;;;1.97;;
32790;SDS011;19143;59.322;14.502;2023-08-24T07:18:49;4.80;;;2.00;;
32790;SDS011;19143;59.322;14.502;2023-08-24T07:21:16;7.03;;;1.57;;
32790;SDS011;19143;59.322;14.502;2023-08-24T07:23:43;3.27;;;1.80;;
32790;SDS011;19143;59.322;14.502;2023-08-24T07:26:10;6.07;;;2.13;;
32790;SDS011;19143;59.322;14.502;2023-08-24T07:28:37;6.93;;;2.00;;
32790;SDS011;19143;59.322;14.502;2023-08-24T07:31:08;7.00;;;2.30;;
32790;SDS011;19143;59.322;14.502;2023-08-24T07:33:36;9.60;;;2.20;;
32790;SDS011;19143;59.322;14.502;2023-08-24T07:36:04;5.33;;;1.93;;
32790;SDS011;19143;59.322;14.502;2023-08-24T07:38:31;9.67;;;1.80;;
32790;SDS011;19143;59.322;14.502;2023-08-24T07:40:57;7.77;;;1.93;;
32790;SDS011;19143;59.322;14.502;2023-08-24T07:43:24;8.30;;;1.77;;
32790;SDS011;19143;59.322;14.502;2023-08-24T07:45:50;2.37;;;1.53;;
32790;SDS011;19143;59.322;14.502;2023-08-24T07:48:19;8.90;;;1.80;;
32790;SDS011;19143;59.322;14.502;2023-08-24T07:50:45;6.10;;;1.90;;
32790;SDS011;19143;59.322;14.502;2023-08-24T07:53:12;9.73;;;1.80;;
32790;SDS011;19143;59.322;14.502;2023-08-24T07:55:39;5.67;;;1.93;;
32790;SDS011;19143;59.322;14.502;2023-08-24T07:58:06;5.30;;;1.57;;
32790;SDS011;19143;59.322;14.502;2023-08-24T08:00:33;1.60;;;1.50;;
32790;SDS011;19143;59.322;14.502;2023-08-24T08:03:00;3.07;;;1.83;;
32790;SDS011;19143;59.322;14.502;2023-08-24T08:05:28;9.03;;;1.90;;
32790;SDS011;19143;59.322;14.502;2023-08-24T08:07:54;7.03;;;2.10;;
32790;SDS011;19143;59.322;14.502;2023-08-24T08:10:21;5.20;;;1.80;;
32790;SDS011;19143;59.322;14.502;2023-08-24T08:12:48;5.20;;;1.90;;
32790;SDS011;19143;59.322;14.502;2023-08-24T08:15:15;7.57;;;2.73;;
32790;SDS011;19143;59.322;14.502;2023-08-24T08:17:41;4.57;;;2.07;;
32790;SDS011;19143;59.322;14.502;2023-08-24T08:20:08;10.77;;;2.07;;
32790;SDS011;19143;59.322;14.502;2023-08-24T08:22:37;7.23;;;1.80;;
32790;SDS011;19143;59.322;14.502;2023-08-24T08:25:04;5.13;;;1.57;;
32790;SDS011;19143;59.322;14.502;2023-08-24T08:27:31;5.20;;;1.47;;
32790;SDS011;19143;59.322;14.502;2023-08-24T08:29:59;3.67;;;1.80;;
32790;SDS011;19143;59.322;14.502;2023-08-24T08:32:25;6.73;;;1.77;;
32790;SDS011;19143;59.322;14.502;2023-08-24T08:34:53;6.27;;;2.17;;
32790;SDS011;19143;59.322;14.502;2023-08-24T08:37:22;4.43;;;1.40;;
32790;SDS011;19143;59.322;14.502;2023-08-24T08:39:50;8.43;;;1.97;;
32790;SDS011;19143;59.322;14.502;2023-08-24T08:42:17;7.87;;;2.00;;
32790;SDS011;19143;59.322;14.502;2023-08-24T08:44:45;9.47;;;2.17;;
32790;SDS011;19143;59.322;14.502;2023-08-24T08:47:12;6.73;;;1.87;;
32790;SDS011;19143;59.322;14.502;2023-08-24T08:49:39;5.40;;;1.90;;
32790;SDS011;19143;59.322;14.502;2023-08-24T08:52:08;10.00;;;2.10;;
32790;SDS011;19143;59.322;14.502;2023-08-24T08:54:35;2.83;;;1.43;;
32790;SDS011;19143;59.322;14.502;2023-08-24T08:57:04;6.80;;;2.10;;
32790;SDS011;19143;59.322;14.502;2023-08-24T08:59:30;5.90;;;1.93;;
32790;SDS011;19143;59.322;14.502;2023-08-24T09:01:58;12.53;;;1.50;;
32790;SDS011;19143;59.322;14.502;2023-08-24T09:04:26;10.90;;;1.80;;
32790;SDS011;19143;59.322;14.502;2023-08-24T09:06:53;3.50;;;1.60;;
32790;SDS011;19143;59.322;14.502;2023-08-24T09:09:21;9.47;;;1.90;;
32790;SDS011;19143;59.322;14.502;2023-08-24T09:11:48;8.67;;;1.80;;
32790;SDS011;19143;59.322;14.502;2023-08-24T09:14:16;5.97;;;1.80;;
32790;SDS011;19143;59.322;14.502;2023-08-24T09:16:42;3.13;;;1.60;;
32790;SDS011;19143;59.322;14.502;2023-08-24T09:19:10;3.37;;;1.60;;
32790;SDS011;19143;59.322;14.502;2023-08-24T09:21:37;2.50;;;1.60;;
32790;SDS011;19143;59.322;14.502;2023-08-24T09:24:05;7.00;;;1.77;;
32790;SDS011;19143;59.322;14.502;2023-08-24T09:26:32;6.77;;;2.23;;
32790;SDS011;19143;59.322;14.502;2023-08-24T09:29:00;9.83;;;1.80;;
32790;SDS011;19143;59.322;14.502;2023-08-24T09:31:34;9.47;;;1.97;;
32790;SDS011;19143;59.322;14.502;2023-08-24T09:34:01;4.63;;;1.70;;
32790;SDS011;19143;59.322;14.502;2023-08-24T09:36:30;3.53;;;1.90;;
32790;SDS011;19143;59.322;14.502;2023-08-24T09:38:58;7.87;;;2.80;;
32790;SDS011;19143;59.322;14.502;2023-08-24T09:41:25;8.77;;;2.73;;
32790;SDS011;19143;59.322;14.502;2023-08-24T09:44:03;5.70;;;1.80;;
32790;SDS011;19143;59.322;14.502;2023-08-24T09:46:31;2.83;;;1.70;;
32790;SDS011;19143;59.322;14.502;2023-08-24T09:48:57;2.97;;;1.63;;
32790;SDS011;19143;59.322;14.502;2023-08-24T09:51:25;7.13;;;1.70;;
32790;SDS011;19143;59.322;14.502;2023-08-24T09:53:52;9.27;;;2.10;;
32790;SDS011;19143;59.322;14.502;2023-08-24T09:56:21;4.33;;;1.60;;
32790;SDS011;19143;59.322;14.502;2023-08-24T09:58:49;15.27;;;2.93;;
32790;SDS011;19143;59.322;14.502;2023-08-24T10:01:17;4.73;;;1.93;;
32790;SDS011;19143;59.322;14.502;2023-08-24T10:03:53;4.53;;;1.50;;
32790;SDS011;19143;59.322;14.502;2023-08-24T10:06:21;5.87;;;1.50;;
32790;SDS011;19143;59.322;14.502;2023-08-24T10:08:52;5.87;;;1.57;;
32790;SDS011;19143;59.322;14.502;2023-08-24T10:11:29;6.83;;;1.83;;
32790;SDS011;19143;59.322;14.502;2023-08-24T10:13:58;4.47;;;1.77;;
32790;SDS011;19143;59.322;14.502;2023-08-24T10:16:29;5.57;;;1.57;;
32790;SDS011;19143;59.322;14.502;2023-08-24T10:18:59;6.97;;;1.70;;
32790;SDS011;19143;59.322;14.502;2023-08-24T10:21:27;5.10;;;2.00;;
32790;SDS011;19143;59.322;14.502;2023-08-24T10:23:54;7.70;;;1.70;;
32790;SDS011;19143;59.322;14.502;2023-08-24T10:26:22;4.13;;;1.50;;
32790;SDS011;19143;59.322;14.502;2023-08-24T10:28:49;1.60;;;1.50;;
32790;SDS011;19143;59.322;14.502;2023-08-24T10:31:16;4.00;;;1.50;;
32790;SDS011;19143;59.322;14.502;2023-08-24T10:33:44;2.87;;;1.50;;
32790;SDS011;19143;59.322;14.502;2023-08-24T10:36:13;6.33;;;1.80;;
32790;SDS011;19143;59.322;14.502;2023-08-24T10:38:41;4.30;;;1.40;;
32790;SDS011;19143;59.322;14.502;2023-08-24T10:41:08;1.73;;;1.20;;
32790;SDS011;19143;59.322;14.502;2023-08-24T10:43:38;3.33;;;1.53;;
32790;SDS011;19143;59.322;14.502;2023-08-24T10:46:11;1.80;;;1.70;;
32790;SDS011;19143;59.322;14.502;2023-08-24T10:48:57;4.00;;;1.40;;
32790;SDS011;19143;59.322;14.502;2023-08-24T10:51:25;1.23;;;1.20;;
32790;SDS011;19143;59.322;14.502;2023-08-24T10:53:53;4.73;;;1.57;;
32790;SDS011;19143;59.322;14.502;2023-08-24T10:56:20;3.63;;;1.37;;
32790;SDS011;19143;59.322;14.502;2023-08-24T10:58:47;2.43;;;1.40;;
32790;SDS011;19143;59.322;14.502;2023-08-24T11:01:22;3.67;;;1.30;;
32790;SDS011;19143;59.322;14.502;2023-08-24T11:03:49;2.63;;;1.50;;
32790;SDS011;19143;59.322;14.502;2023-08-24T11:06:19;2.63;;;1.40;;
32790;SDS011;19143;59.322;14.502;2023-08-24T11:08:48;2.70;;;1.27;;
32790;SDS011;19143;59.322;14.502;2023-08-24T11:11:18;5.97;;;1.30;;
32790;SDS011;19143;59.322;14.502;2023-08-24T11:16:38;3.43;;;1.37;;
32790;SDS011;19143;59.322;14.502;2023-08-24T11:19:06;3.83;;;1.30;;
32790;SDS011;19143;59.322;14.502;2023-08-24T11:21:33;6.13;;;1.30;;
32790;SDS011;19143;59.322;14.502;2023-08-24T11:24:05;6.63;;;1.33;;
32790;SDS011;19143;59.322;14.502;2023-08-24T11:26:41;2.80;;;1.20;;
32790;SDS011;19143;59.322;14.502;2023-08-24T11:29:09;4.97;;;1.40;;
32790;SDS011;19143;59.322;14.502;2023-08-24T11:31:35;3.63;;;1.30;;
32790;SDS011;19143;59.322;14.502;2023-08-24T11:34:02;1.40;;;1.20;;
32790;SDS011;19143;59.322;14.502;2023-08-24T11:36:30;5.37;;;1.70;;
32790;SDS011;19143;59.322;14.502;2023-08-24T11:38:57;4.03;;;1.40;;
32790;SDS011;19143;59.322;14.502;2023-08-24T11:41:26;1.60;;;1.50;;
32790;SDS011;19143;59.322;14.502;2023-08-24T11:43:59;2.27;;;1.30;;
32790;SDS011;19143;59.322;14.502;2023-08-24T11:46:40;1.30;;;1.20;;
32790;SDS011;19143;59.322;14.502;2023-08-24T11:49:07;1.60;;;1.10;;
32790;SDS011;19143;59.322;14.502;2023-08-24T11:51:36;2.50;;;1.40;;
32790;SDS011;19143;59.322;14.502;2023-08-24T11:54:03;1.10;;;1.10;;
32790;SDS011;19143;59.322;14.502;2023-08-24T11:56:32;2.37;;;1.20;;
32790;SDS011;19143;59.322;14.502;2023-08-24T11:59:00;1.93;;;1.17;;
32790;SDS011;19143;59.322;14.502;2023-08-24T12:01:27;4.83;;;1.43;;
32790;SDS011;19143;59.322;14.502;2023-08-24T12:03:54;4.77;;;1.40;;
32790;SDS011;19143;59.322;14.502;2023-08-24T12:06:21;3.37;;;1.63;;
32790;SDS011;19143;59.322;14.502;2023-08-24T12:08:48;2.30;;;1.00;;
32790;SDS011;19143;59.322;14.502;2023-08-24T12:11:16;1.00;;;1.00;;
32790;SDS011;19143;59.322;14.502;2023-08-24T12:16:34;3.37;;;1.43;;
32790;SDS011;19143;59.322;14.502;2023-08-24T12:19:01;2.07;;;1.10;;
32790;SDS011;19143;59.322;14.502;2023-08-24T12:21:29;4.93;;;1.40;;
32790;SDS011;19143;59.322;14.502;2023-08-24T12:23:56;4.27;;;1.40;;
32790;SDS011;19143;59.322;14.502;2023-08-24T12:26:23;2.80;;;1.37;;
32790;SDS011;19143;59.322;14.502;2023-08-24T12:28:50;4.37;;;1.53;;
32790;SDS011;19143;59.322;14.502;2023-08-24T12:31:18;2.93;;;1.40;;
32790;SDS011;19143;59.322;14.502;2023-08-24T12:33:59;2.10;;;1.30;;
32790;SDS011;19143;59.322;14.502;2023-08-24T12:36:26;3.07;;;1.47;;
32790;SDS011;19143;59.322;14.502;2023-08-24T12:38:53;1.10;;;1.10;;
32790;SDS011;19143;59.322;14.502;2023-08-24T12:41:19;1.60;;;1.47;;
32790;SDS011;19143;59.322;14.502;2023-08-24T12:43:46;7.63;;;1.40;;
32790;SDS011;19143;59.322;14.502;2023-08-24T12:46:13;2.37;;;1.30;;
32790;SDS011;19143;59.322;14.502;2023-08-24T12:48:40;2.27;;;1.40;;
32790;SDS011;19143;59.322;14.502;2023-08-24T12:51:09;2.27;;;1.13;;
32790;SDS011;19143;59.322;14.502;2023-08-24T12:53:38;3.83;;;1.57;;
32790;SDS011;19143;59.322;14.502;2023-08-24T12:56:10;3.57;;;1.20;;
32790;SDS011;19143;59.322;14.502;2023-08-24T12:58:37;5.27;;;1.33;;
32790;SDS011;19143;59.322;14.502;2023-08-24T13:01:04;1.43;;;1.20;;
32790;SDS011;19143;59.322;14.502;2023-08-24T13:03:32;1.73;;;1.27;;
32790;SDS011;19143;59.322;14.502;2023-08-24T13:06:01;2.07;;;1.23;;
32790;SDS011;19143;59.322;14.502;2023-08-24T13:08:31;1.87;;;1.20;;
32790;SDS011;19143;59.322;14.502;2023-08-24T13:10:57;1.67;;;1.57;;
32790;SDS011;19143;59.322;14.502;2023-08-24T13:13:24;1.40;;;1.40;;
32790;SDS011;19143;59.322;14.502;2023-08-24T13:15:51;2.73;;;1.30;;
32790;SDS011;19143;59.322;14.502;2023-08-24T13:18:17;1.97;;;1.30;;
32790;SDS011;19143;59.322;14.502;2023-08-24T13:20:44;1.40;;;1.30;;
32790;SDS011;19143;59.322;14.502;2023-08-24T13:23:11;2.37;;;1.30;;
32790;SDS011;19143;59.322;14.502;2023-08-24T13:25:39;2.57;;;1.10;;
32790;SDS011;19143;59.322;14.502;2023-08-24T13:28:06;2.00;;;1.30;;
32790;SDS011;19143;59.322;14.502;2023-08-24T13:30:33;1.53;;;1.23;;
32790;SDS011;19143;59.322;14.502;2023-08-24T13:32:59;1.50;;;1.40;;
32790;SDS011;19143;59.322;14.502;2023-08-24T13:35:26;1.60;;;1.20;;
32790;SDS011;19143;59.322;14.502;2023-08-24T13:37:53;1.47;;;1.43;;
32790;SDS011;19143;59.322;14.502;2023-08-24T13:42:57;1.67;;;1.50;;
32790;SDS011;19143;59.322;14.502;2023-08-24T13:59:55;3.13;;;1.70;;
32790;SDS011;19143;59.322;14.502;2023-08-24T14:02:22;1.67;;;1.40;;
32790;SDS011;19143;59.322;14.502;2023-08-24T14:04:49;1.40;;;1.40;;
32790;SDS011;19143;59.322;14.502;2023-08-24T14:10:11;2.43;;;1.57;;
32790;SDS011;19143;59.322;14.502;2023-08-24T14:12:52;2.00;;;1.40;;
32790;SDS011;19143;59.322;14.502;2023-08-24T14:15:24;2.63;;;1.33;;
32790;SDS011;19143;59.322;14.502;2023-08-24T14:17:51;8.20;;;1.60;;
32790;SDS011;19143;59.322;14.502;2023-08-24T14:20:18;4.07;;;1.80;;
32790;SDS011;19143;59.322;14.502;2023-08-24T14:22:47;3.00;;;1.77;;
32790;SDS011;19143;59.322;14.502;2023-08-24T14:25:18;1.10;;;1.10;;
32790;SDS011;19143;59.322;14.502;2023-08-24T14:27:45;4.90;;;1.73;;
32790;SDS011;19143;59.322;14.502;2023-08-24T14:30:13;1.57;;;1.47;;
32790;SDS011;19143;59.322;14.502;2023-08-24T14:32:41;1.80;;;1.70;;
32790;SDS011;19143;59.322;14.502;2023-08-24T14:35:11;1.33;;;1.33;;
32790;SDS011;19143;59.322;14.502;2023-08-24T14:37:37;2.87;;;1.50;;
32790;SDS011;19143;59.322;14.502;2023-08-24T14:40:06;2.77;;;2.33;;
32790;SDS011;19143;59.322;14.502;2023-08-24T14:42:35;9.07;;;1.60;;
32790;SDS011;19143;59.322;14.502;2023-08-24T14:45:02;3.60;;;1.70;;
32790;SDS011;19143;59.322;14.502;2023-08-24T14:47:28;1.43;;;1.30;;
32790;SDS011;19143;59.322;14.502;2023-08-24T14:49:57;2.80;;;1.53;;
32790;SDS011;19143;59.322;14.502;2023-08-24T14:52:24;4.03;;;2.00;;
32790;SDS011;19143;59.322;14.502;2023-08-24T14:54:58;1.73;;;1.47;;
32790;SDS011;19143;59.322;14.502;2023-08-24T14:57:29;1.80;;;1.70;;
32790;SDS011;19143;59.322;14.502;2023-08-24T14:59:58;1.73;;;1.63;;
32790;SDS011;19143;59.322;14.502;2023-08-24T15:02:25;8.03;;;1.60;;
32790;SDS011;19143;59.322;14.502;2023-08-24T15:04:52;3.77;;;1.80;;